METAR AND TAF INFORMATION
METAR FOR SBSR
ADDS - METARS form results

(2235 UTC 17 February 2019)
Data provider http://aviationweather.gov/metar/data/
 
METAR text: SBSR 172200Z 04004KT 9999 FEW030 29/17 Q1011
Conditions at: SBSR (SAO JOSE PRETO , BR) observed 2200 UTC 17 February 2019
Temperature: 29.0°C (84°F)
Dewpoint: 17.0°C (63°F) [RH = 48%]
Pressure (altimeter): 29.85 inches Hg (1011.0 mb)
Winds: from the NE (40 degrees) at 5 MPH (4 knots; 2.1 m/s)
Visibility: 6 or more miles (10+ km)
Ceiling: at least 12,000 feet AGL
Clouds: few clouds at 3000 feet AGL
Weather: no significant weather observed at this time

 AIRPORT MAP

 RUNWAY INFORMATION
Runway 7 Runway length 5381 ft Runway width 115 ft
Runway elevation 0 ft Runway displaced threshold 0 ft Runway heading 0
Runway 25 Runway length 5381 ft Runway width 115 ft
Runway elevation 0 ft Runway displaced threshold 0 ft Runway heading 0

 AIRPORT FREQUENCIES
Type AFIS Name RDO Frequency 130.85 MHZ

 AIRPORT NEAR NAVIGATION AIDS
Type NDB Name Rio Preto Frequency 420 KHZ



Powered by Virtual Airlines Manager [v2.6.2]